Terminal Aerodrome Forecast
Issued by NWS

Home | Current Version | Previous Version | Text Only | Print | Product List | Glossary On
Versions: 1 2 3 4 5 6 7 8 9 10 11 12 13 14 15 16 17 18 19
515
FTUS43 KDVN 172332
TAFBRL
TAF
KBRL 172332Z 1800/1824 16006KT 5SM BR SCT028 BKN035 OVC060
      TEMPO 1800/1804 3/4SM -RADZ BR OVC012
     FM180400 11005KT 2SM -RA BR OVC009
     FM181100 35015KT 1SM -RA BR OVC006
     FM181500 33020G30KT 3/4SM -RASN BR OVC012
     FM181900 31017G26KT P6SM SKC=

USA.gov is the U.S. government's official web portal to all federal, state and local government web resources and services.